This is the latest recevied weather packets stored in our database for station/object K5IDL. If no packets are shown the sender has not sent any weather packets the latest 10 day(s).
| Time | Temp. | Humidity | Pressure | Rain* | Wind** | Luminosity | Snow |
|---|---|---|---|---|---|---|---|
| 1777508907 | 17.22° C | 79% | 1014 hPa | 0 mm | - | 19 W/m² | - |
| 1777508604 | 17.22° C | 79% | 1014.5 hPa | 0 mm | - | 11 W/m² | - |
| 1777508302 | 17.22° C | 79% | 1014.7 hPa | 0 mm | - | 15 W/m² | - |
| 1777507999 | 17.22° C | 80% | 1014.4 hPa | 0 mm | - | 16 W/m² | - |
| 1777507695 | 17.22° C | 80% | 1014.3 hPa | 0 mm | - | 12 W/m² | - |
| 1777507392 | 17.22° C | 79% | 1014.5 hPa | 0 mm | - | 8 W/m² | - |
| 1777507090 | 17.22° C | 79% | 1014.8 hPa | 0 mm | - | 4 W/m² | - |
| 1777506787 | 17.22° C | 80% | 1014.5 hPa | 0 mm | - | 5 W/m² | - |
| 1777506484 | 17.22° C | 80% | 1013.9 hPa | 0 mm | - | 8 W/m² | - |
| 1777506178 | 17.22° C | 81% | 1014.2 hPa | 0 mm | - | 8 W/m² | - |
| 1777505869 | 17.22° C | 81% | 1013.8 hPa | 0 mm | - | 11 W/m² | - |
| 1777505566 | 17.22° C | 81% | 1013.9 hPa | 0 mm | - | 11 W/m² | - |
| 1777505262 | 17.22° C | 81% | 1014 hPa | 0 mm | - | 11 W/m² | - |
| 1777504959 | 17.22° C | 81% | 1014.3 hPa | 0 mm | - | 12 W/m² | - |
| 1777504656 | 17.22° C | 82% | 1014.2 hPa | 0 mm | - | 14 W/m² | - |
| 1777504353 | 17.22° C | 82% | 1014 hPa | 0 mm | - | 25 W/m² | - |
| 1777504047 | 17.22° C | 81% | 1014.2 hPa | 0 mm | - | 25 W/m² | - |
| 1777503744 | 17.22° C | 82% | 1014.5 hPa | 0 mm | - | 24 W/m² | - |
| 1777503441 | 17.22° C | 82% | 1014.7 hPa | 0 mm | - | 26 W/m² | - |
| 1777503137 | 17.22° C | 83% | 1014.7 hPa | 0 mm | - | 25 W/m² | - |
| 1777502835 | 16.67° C | 83% | 1015.1 hPa | 0 mm | - | 24 W/m² | - |
| 1777502532 | 16.67° C | 82% | 1015.2 hPa | 0 mm | - | 21 W/m² | - |
| 1777502229 | 16.67° C | 83% | 1014.6 hPa | 0 mm | - | 37 W/m² | - |
| 1777501926 | 16.67° C | 82% | 1014.7 hPa | 0 mm | - | 52 W/m² | - |
| 1777501623 | 16.67° C | 83% | 1014.6 hPa | 0 mm | - | 49 W/m² | - |
* Rain latest hour (hover to see other rain measurements)
** Current wind speed in m/s (hover to see current wind gust speed)